Terminal Aerodrome Forecast
Issued by NWS Jackson, MS

Home | Current Version | Previous Version | Text Only | Print | Product List | Glossary On
Versions: 1 2 3 4 5 6 7 8 9 10 11 12 13 14 15
000
FTUS44 KJAN 161100 RRA
TAFJAN
TAF
KJAN 161151Z 1612/1712 01004KT P6SM FEW035 BKN200
     FM161900 01006KT P6SM VCSH SCT050 BKN150
     FM170000 03003KT P6SM SCT250=

USA.gov is the U.S. government's official web portal to all federal, state and local government web resources and services.